sensor_id;sensor_type;location;lat;lon;timestamp;pressure;altitude;pressure_sealevel;temperature;humidity
72925;BME280;61070;50.794;7.054;2023-02-15T00:01:07;102219.41;;;1.16;100.00
72925;BME280;61070;50.794;7.054;2023-02-15T00:03:33;102217.44;;;1.12;100.00
72925;BME280;61070;50.794;7.054;2023-02-15T00:05:58;102211.91;;;1.06;100.00
72925;BME280;61070;50.794;7.054;2023-02-15T00:08:23;102206.69;;;1.06;100.00
72925;BME280;61070;50.794;7.054;2023-02-15T00:10:49;102211.84;;;1.05;100.00
72925;BME280;61070;50.794;7.054;2023-02-15T00:13:14;102203.47;;;1.12;100.00
72925;BME280;61070;50.794;7.054;2023-02-15T00:15:40;102206.56;;;1.03;100.00
72925;BME280;61070;50.794;7.054;2023-02-15T00:18:05;102197.22;;;1.08;100.00
72925;BME280;61070;50.794;7.054;2023-02-15T00:20:30;102199.69;;;1.05;100.00
72925;BME280;61070;50.794;7.054;2023-02-15T00:22:56;102192.75;;;1.06;100.00
72925;BME280;61070;50.794;7.054;2023-02-15T00:25:21;102192.00;;;1.08;100.00
72925;BME280;61070;50.794;7.054;2023-02-15T00:27:46;102196.56;;;1.12;100.00
72925;BME280;61070;50.794;7.054;2023-02-15T00:30:12;102198.72;;;1.03;100.00
72925;BME280;61070;50.794;7.054;2023-02-15T00:32:37;102196.00;;;1.02;100.00
72925;BME280;61070;50.794;7.054;2023-02-15T00:35:02;102191.47;;;0.98;100.00
72925;BME280;61070;50.794;7.054;2023-02-15T00:37:28;102188.72;;;0.95;100.00
72925;BME280;61070;50.794;7.054;2023-02-15T00:39:53;102190.41;;;0.94;100.00
72925;BME280;61070;50.794;7.054;2023-02-15T00:42:18;102183.88;;;1.02;100.00
72925;BME280;61070;50.794;7.054;2023-02-15T00:44:43;102187.81;;;0.94;100.00
72925;BME280;61070;50.794;7.054;2023-02-15T00:47:09;102187.06;;;0.97;100.00
72925;BME280;61070;50.794;7.054;2023-02-15T00:49:34;102186.09;;;0.95;100.00
72925;BME280;61070;50.794;7.054;2023-02-15T00:51:59;102188.94;;;0.99;100.00
72925;BME280;61070;50.794;7.054;2023-02-15T00:54:25;102187.59;;;1.07;100.00
72925;BME280;61070;50.794;7.054;2023-02-15T00:56:50;102184.47;;;0.97;100.00
72925;BME280;61070;50.794;7.054;2023-02-15T00:59:15;102183.63;;;0.98;100.00
72925;BME280;61070;50.794;7.054;2023-02-15T01:01:41;102188.03;;;0.99;100.00
72925;BME280;61070;50.794;7.054;2023-02-15T01:04:06;102180.59;;;1.06;100.00
72925;BME280;61070;50.794;7.054;2023-02-15T01:06:31;102177.44;;;0.96;100.00
72925;BME280;61070;50.794;7.054;2023-02-15T01:08:57;102179.09;;;0.94;100.00
72925;BME280;61070;50.794;7.054;2023-02-15T01:11:24;102177.78;;;0.85;100.00
72925;BME280;61070;50.794;7.054;2023-02-15T01:13:51;102180.47;;;0.87;100.00
72925;BME280;61070;50.794;7.054;2023-02-15T01:16:17;102180.66;;;0.74;100.00
72925;BME280;61070;50.794;7.054;2023-02-15T01:18:42;102178.06;;;0.74;100.00
72925;BME280;61070;50.794;7.054;2023-02-15T01:21:10;102179.28;;;0.80;100.00
72925;BME280;61070;50.794;7.054;2023-02-15T01:23:35;102173.47;;;0.86;100.00
72925;BME280;61070;50.794;7.054;2023-02-15T01:26:02;102180.41;;;0.85;100.00
72925;BME280;61070;50.794;7.054;2023-02-15T01:28:27;102183.50;;;0.78;100.00
72925;BME280;61070;50.794;7.054;2023-02-15T01:30:52;102176.75;;;0.82;100.00
72925;BME280;61070;50.794;7.054;2023-02-15T01:33:18;102175.47;;;0.74;100.00
72925;BME280;61070;50.794;7.054;2023-02-15T01:35:46;102170.56;;;0.80;100.00
72925;BME280;61070;50.794;7.054;2023-02-15T01:38:13;102172.44;;;0.66;100.00
72925;BME280;61070;50.794;7.054;2023-02-15T01:40:38;102166.25;;;0.64;100.00
72925;BME280;61070;50.794;7.054;2023-02-15T01:43:09;102164.63;;;0.66;100.00
72925;BME280;61070;50.794;7.054;2023-02-15T01:45:35;102162.84;;;0.65;100.00
72925;BME280;61070;50.794;7.054;2023-02-15T01:48:03;102155.25;;;0.70;100.00
72925;BME280;61070;50.794;7.054;2023-02-15T01:50:33;102161.38;;;0.70;100.00
72925;BME280;61070;50.794;7.054;2023-02-15T01:53:24;102163.56;;;0.63;100.00
72925;BME280;61070;50.794;7.054;2023-02-15T01:55:54;102158.59;;;0.67;100.00
72925;BME280;61070;50.794;7.054;2023-02-15T01:58:21;102160.22;;;0.65;100.00
72925;BME280;61070;50.794;7.054;2023-02-15T02:00:47;102153.47;;;0.69;100.00
72925;BME280;61070;50.794;7.054;2023-02-15T02:03:13;102160.16;;;0.64;100.00
72925;BME280;61070;50.794;7.054;2023-02-15T02:05:40;102155.00;;;0.65;100.00
72925;BME280;61070;50.794;7.054;2023-02-15T02:08:06;102147.13;;;0.64;100.00
72925;BME280;61070;50.794;7.054;2023-02-15T02:10:33;102155.53;;;0.58;100.00
72925;BME280;61070;50.794;7.054;2023-02-15T02:13:03;102148.13;;;0.49;100.00
72925;BME280;61070;50.794;7.054;2023-02-15T02:15:40;102136.94;;;0.52;100.00
72925;BME280;61070;50.794;7.054;2023-02-15T02:26:47;102130.84;;;0.51;100.00
72925;BME280;61070;50.794;7.054;2023-02-15T02:37:37;102117.31;;;0.58;100.00
72925;BME280;61070;50.794;7.054;2023-02-15T02:43:06;102119.66;;;0.54;100.00
72925;BME280;61070;50.794;7.054;2023-02-15T02:48:22;102113.28;;;0.65;100.00
72925;BME280;61070;50.794;7.054;2023-02-15T02:50:49;102108.81;;;0.63;100.00
72925;BME280;61070;50.794;7.054;2023-02-15T02:53:14;102103.84;;;0.67;100.00
72925;BME280;61070;50.794;7.054;2023-02-15T02:56:04;102102.22;;;0.69;100.00
72925;BME280;61070;50.794;7.054;2023-02-15T02:58:36;102096.81;;;0.66;100.00
72925;BME280;61070;50.794;7.054;2023-02-15T03:01:08;102097.19;;;0.56;100.00
72925;BME280;61070;50.794;7.054;2023-02-15T03:03:41;102092.44;;;0.65;100.00
72925;BME280;61070;50.794;7.054;2023-02-15T03:06:16;102094.28;;;0.68;100.00
72925;BME280;61070;50.794;7.054;2023-02-15T03:08:46;102080.81;;;0.58;100.00
72925;BME280;61070;50.794;7.054;2023-02-15T03:11:12;102084.94;;;0.71;100.00
72925;BME280;61070;50.794;7.054;2023-02-15T03:13:39;102081.03;;;0.63;100.00
72925;BME280;61070;50.794;7.054;2023-02-15T03:16:06;102078.00;;;0.72;100.00
72925;BME280;61070;50.794;7.054;2023-02-15T03:19:08;102069.94;;;0.67;100.00
72925;BME280;61070;50.794;7.054;2023-02-15T03:21:40;102063.94;;;0.68;100.00
72925;BME280;61070;50.794;7.054;2023-02-15T03:24:10;102069.50;;;0.76;100.00
72925;BME280;61070;50.794;7.054;2023-02-15T03:26:39;102070.94;;;0.69;100.00
72925;BME280;61070;50.794;7.054;2023-02-15T03:29:05;102069.88;;;0.66;100.00
72925;BME280;61070;50.794;7.054;2023-02-15T03:31:37;102081.78;;;0.78;100.00
72925;BME280;61070;50.794;7.054;2023-02-15T03:34:05;102069.94;;;0.67;100.00
72925;BME280;61070;50.794;7.054;2023-02-15T03:39:35;102072.81;;;0.55;100.00
72925;BME280;61070;50.794;7.054;2023-02-15T03:42:17;102075.63;;;0.76;100.00
72925;BME280;61070;50.794;7.054;2023-02-15T03:45:10;102068.50;;;0.56;100.00
72925;BME280;61070;50.794;7.054;2023-02-15T03:47:39;102068.47;;;0.72;100.00
72925;BME280;61070;50.794;7.054;2023-02-15T03:50:19;102063.00;;;0.68;100.00
72925;BME280;61070;50.794;7.054;2023-02-15T03:53:06;102058.53;;;0.65;100.00
72925;BME280;61070;50.794;7.054;2023-02-15T03:55:33;102063.19;;;0.71;100.00
72925;BME280;61070;50.794;7.054;2023-02-15T03:58:01;102057.56;;;0.63;100.00
72925;BME280;61070;50.794;7.054;2023-02-15T04:00:57;102051.31;;;0.60;100.00
72925;BME280;61070;50.794;7.054;2023-02-15T04:03:45;102052.72;;;0.53;100.00
72925;BME280;61070;50.794;7.054;2023-02-15T04:06:15;102050.72;;;0.47;100.00
72925;BME280;61070;50.794;7.054;2023-02-15T04:08:40;102052.38;;;0.63;100.00
72925;BME280;61070;50.794;7.054;2023-02-15T04:11:24;102052.06;;;0.57;100.00
72925;BME280;61070;50.794;7.054;2023-02-15T04:13:49;102054.56;;;0.55;100.00
72925;BME280;61070;50.794;7.054;2023-02-15T04:16:22;102064.78;;;0.51;100.00
72925;BME280;61070;50.794;7.054;2023-02-15T04:18:47;102068.06;;;0.47;100.00
72925;BME280;61070;50.794;7.054;2023-02-15T04:21:31;102069.66;;;0.45;100.00
72925;BME280;61070;50.794;7.054;2023-02-15T04:24:16;102069.53;;;0.42;100.00
72925;BME280;61070;50.794;7.054;2023-02-15T04:27:00;102066.34;;;0.47;100.00
72925;BME280;61070;50.794;7.054;2023-02-15T04:29:27;102068.88;;;0.46;100.00
72925;BME280;61070;50.794;7.054;2023-02-15T04:31:53;102061.56;;;0.39;100.00
72925;BME280;61070;50.794;7.054;2023-02-15T04:34:20;102056.50;;;0.42;100.00
72925;BME280;61070;50.794;7.054;2023-02-15T04:36:45;102066.75;;;0.39;100.00
72925;BME280;61070;50.794;7.054;2023-02-15T04:39:15;102066.63;;;0.36;100.00
72925;BME280;61070;50.794;7.054;2023-02-15T04:41:41;102060.50;;;0.35;100.00
72925;BME280;61070;50.794;7.054;2023-02-15T04:44:06;102057.66;;;0.31;100.00
72925;BME280;61070;50.794;7.054;2023-02-15T04:46:32;102049.97;;;0.34;100.00
72925;BME280;61070;50.794;7.054;2023-02-15T04:48:57;102055.88;;;0.29;100.00
72925;BME280;61070;50.794;7.054;2023-02-15T04:51:23;102051.69;;;0.33;100.00
72925;BME280;61070;50.794;7.054;2023-02-15T04:53:49;102050.16;;;0.37;100.00
72925;BME280;61070;50.794;7.054;2023-02-15T04:56:14;102051.06;;;0.37;100.00
72925;BME280;61070;50.794;7.054;2023-02-15T04:58:40;102042.34;;;0.37;100.00
72925;BME280;61070;50.794;7.054;2023-02-15T05:01:10;102044.88;;;0.35;100.00
72925;BME280;61070;50.794;7.054;2023-02-15T05:03:35;102047.09;;;0.45;100.00
72925;BME280;61070;50.794;7.054;2023-02-15T05:06:01;102039.06;;;0.41;100.00
72925;BME280;61070;50.794;7.054;2023-02-15T05:08:27;102045.03;;;0.38;100.00
72925;BME280;61070;50.794;7.054;2023-02-15T05:10:52;102042.34;;;0.37;100.00
72925;BME280;61070;50.794;7.054;2023-02-15T05:13:17;102042.69;;;0.26;100.00
72925;BME280;61070;50.794;7.054;2023-02-15T05:15:50;102044.13;;;0.38;100.00
72925;BME280;61070;50.794;7.054;2023-02-15T05:18:17;102044.28;;;0.41;100.00
72925;BME280;61070;50.794;7.054;2023-02-15T05:20:43;102045.91;;;0.39;100.00
72925;BME280;61070;50.794;7.054;2023-02-15T05:23:08;102045.59;;;0.33;100.00
72925;BME280;61070;50.794;7.054;2023-02-15T05:25:34;102046.25;;;0.28;100.00
72925;BME280;61070;50.794;7.054;2023-02-15T05:28:18;102049.34;;;0.55;100.00
72925;BME280;61070;50.794;7.054;2023-02-15T05:30:51;102049.63;;;0.44;100.00
72925;BME280;61070;50.794;7.054;2023-02-15T05:33:23;102038.91;;;0.38;100.00
72925;BME280;61070;50.794;7.054;2023-02-15T05:35:48;102035.16;;;0.49;100.00
72925;BME280;61070;50.794;7.054;2023-02-15T05:38:14;102031.91;;;0.37;100.00
72925;BME280;61070;50.794;7.054;2023-02-15T05:40:39;102023.91;;;0.34;100.00
72925;BME280;61070;50.794;7.054;2023-02-15T05:43:04;102029.88;;;0.31;100.00
72925;BME280;61070;50.794;7.054;2023-02-15T05:45:30;102043.09;;;0.34;100.00
72925;BME280;61070;50.794;7.054;2023-02-15T05:47:55;102041.28;;;0.33;100.00
72925;BME280;61070;50.794;7.054;2023-02-15T05:50:23;102039.66;;;0.35;100.00
72925;BME280;61070;50.794;7.054;2023-02-15T05:52:48;102040.38;;;0.33;100.00
72925;BME280;61070;50.794;7.054;2023-02-15T05:55:13;102044.88;;;0.35;100.00
72925;BME280;61070;50.794;7.054;2023-02-15T05:57:38;102038.31;;;0.43;100.00
72925;BME280;61070;50.794;7.054;2023-02-15T06:00:05;102045.41;;;0.46;100.00
72925;BME280;61070;50.794;7.054;2023-02-15T06:02:37;102035.91;;;0.46;100.00
72925;BME280;61070;50.794;7.054;2023-02-15T06:05:04;102033.38;;;0.32;100.00
72925;BME280;61070;50.794;7.054;2023-02-15T06:07:29;102038.09;;;0.39;100.00
72925;BME280;61070;50.794;7.054;2023-02-15T06:09:55;102045.03;;;0.56;100.00
72925;BME280;61070;50.794;7.054;2023-02-15T06:12:20;102034.00;;;0.44;100.00
72925;BME280;61070;50.794;7.054;2023-02-15T06:14:45;102031.91;;;0.37;100.00
72925;BME280;61070;50.794;7.054;2023-02-15T06:17:11;102029.25;;;0.35;100.00
72925;BME280;61070;50.794;7.054;2023-02-15T06:19:38;102034.00;;;0.44;100.00
72925;BME280;61070;50.794;7.054;2023-02-15T06:22:03;102038.56;;;0.48;100.00
72925;BME280;61070;50.794;7.054;2023-02-15T06:24:28;102046.47;;;0.33;100.00
72925;BME280;61070;50.794;7.054;2023-02-15T06:26:53;102038.03;;;0.37;100.00
72925;BME280;61070;50.794;7.054;2023-02-15T06:29:19;102043.25;;;0.37;100.00
72925;BME280;61070;50.794;7.054;2023-02-15T06:31:44;102045.91;;;0.39;100.00
72925;BME280;61070;50.794;7.054;2023-02-15T06:34:09;102040.47;;;0.34;100.00
72925;BME280;61070;50.794;7.054;2023-02-15T06:36:35;102048.91;;;0.46;100.00
72925;BME280;61070;50.794;7.054;2023-02-15T06:39:00;102046.31;;;0.46;100.00
72925;BME280;61070;50.794;7.054;2023-02-15T06:41:27;102044.50;;;0.45;100.00
72925;BME280;61070;50.794;7.054;2023-02-15T06:43:52;102043.81;;;0.32;100.00
72925;BME280;61070;50.794;7.054;2023-02-15T06:46:17;102045.78;;;0.36;100.00
72925;BME280;61070;50.794;7.054;2023-02-15T06:48:43;102045.41;;;0.46;100.00
72925;BME280;61070;50.794;7.054;2023-02-15T06:51:08;102039.53;;;0.50;100.00
72925;BME280;61070;50.794;7.054;2023-02-15T06:53:33;102040.94;;;0.43;100.00
72925;BME280;61070;50.794;7.054;2023-02-15T06:56:03;102041.19;;;0.48;100.00
72925;BME280;61070;50.794;7.054;2023-02-15T06:58:38;102038.41;;;0.45;100.00
72925;BME280;61070;50.794;7.054;2023-02-15T07:01:04;102044.75;;;0.50;100.00
72925;BME280;61070;50.794;7.054;2023-02-15T07:03:29;102044.50;;;0.45;100.00
72925;BME280;61070;50.794;7.054;2023-02-15T07:05:59;102042.22;;;0.51;100.00
72925;BME280;61070;50.794;7.054;2023-02-15T07:08:26;102043.09;;;0.52;100.00
72925;BME280;61070;50.794;7.054;2023-02-15T07:10:52;102043.72;;;0.64;100.00
72925;BME280;61070;50.794;7.054;2023-02-15T07:13:19;102043.34;;;0.74;100.00
72925;BME280;61070;50.794;7.054;2023-02-15T07:15:47;102048.72;;;0.60;100.00
72925;BME280;61070;50.794;7.054;2023-02-15T07:18:12;102037.06;;;0.53;100.00
72925;BME280;61070;50.794;7.054;2023-02-15T07:20:38;102039.53;;;0.68;100.00
72925;BME280;61070;50.794;7.054;2023-02-15T07:23:04;102036.03;;;0.67;100.00
72925;BME280;61070;50.794;7.054;2023-02-15T07:25:30;102029.50;;;0.75;100.00
72925;BME280;61070;50.794;7.054;2023-02-15T07:28:00;102027.72;;;0.74;100.00
72925;BME280;61070;50.794;7.054;2023-02-15T07:30:26;102032.44;;;0.81;100.00
72925;BME280;61070;50.794;7.054;2023-02-15T07:32:56;102034.97;;;0.80;100.00
72925;BME280;61070;50.794;7.054;2023-02-15T07:35:46;102027.13;;;0.98;100.00
72925;BME280;61070;50.794;7.054;2023-02-15T07:38:12;102019.91;;;0.92;100.00
72925;BME280;61070;50.794;7.054;2023-02-15T07:40:37;102022.34;;;0.89;100.00
72925;BME280;61070;50.794;7.054;2023-02-15T07:43:03;102013.56;;;1.05;100.00
72925;BME280;61070;50.794;7.054;2023-02-15T07:45:28;102006.69;;;1.07;100.00
72925;BME280;61070;50.794;7.054;2023-02-15T07:47:53;101999.81;;;1.09;100.00
72925;BME280;61070;50.794;7.054;2023-02-15T07:50:19;102000.59;;;1.06;100.00
72925;BME280;61070;50.794;7.054;2023-02-15T07:52:44;102003.41;;;1.11;100.00
72925;BME280;61070;50.794;7.054;2023-02-15T07:55:09;101988.88;;;1.16;100.00
72925;BME280;61070;50.794;7.054;2023-02-15T07:57:41;101995.13;;;1.20;100.00
72925;BME280;61070;50.794;7.054;2023-02-15T08:00:07;101984.00;;;1.24;100.00
72925;BME280;61070;50.794;7.054;2023-02-15T08:02:32;101982.69;;;1.33;100.00
72925;BME280;61070;50.794;7.054;2023-02-15T08:04:59;101982.94;;;1.38;100.00
72925;BME280;61070;50.794;7.054;2023-02-15T08:07:24;101974.53;;;1.45;100.00
72925;BME280;61070;50.794;7.054;2023-02-15T08:09:49;101969.53;;;1.50;100.00
72925;BME280;61070;50.794;7.054;2023-02-15T08:12:14;101979.59;;;1.60;100.00
72925;BME280;61070;50.794;7.054;2023-02-15T08:14:40;101975.03;;;1.75;100.00
72925;BME280;61070;50.794;7.054;2023-02-15T08:17:05;101974.19;;;1.76;100.00
72925;BME280;61070;50.794;7.054;2023-02-15T08:19:32;101963.81;;;1.78;100.00
72925;BME280;61070;50.794;7.054;2023-02-15T08:22:02;101967.03;;;1.91;100.00
72925;BME280;61070;50.794;7.054;2023-02-15T08:24:31;101967.84;;;2.10;100.00
72925;BME280;61070;50.794;7.054;2023-02-15T08:26:57;101961.78;;;2.11;100.00
72925;BME280;61070;50.794;7.054;2023-02-15T08:29:26;101960.53;;;2.02;100.00
72925;BME280;61070;50.794;7.054;2023-02-15T08:32:04;101963.97;;;2.21;100.00
72925;BME280;61070;50.794;7.054;2023-02-15T08:34:32;101962.16;;;2.20;100.00
72925;BME280;61070;50.794;7.054;2023-02-15T08:36:58;101960.41;;;2.40;100.00
72925;BME280;61070;50.794;7.054;2023-02-15T08:39:23;101958.47;;;2.36;99.30
72925;BME280;61070;50.794;7.054;2023-02-15T08:41:49;101960.47;;;2.41;99.10
72925;BME280;61070;50.794;7.054;2023-02-15T08:44:17;101956.19;;;2.43;99.46
72925;BME280;61070;50.794;7.054;2023-02-15T08:46:43;101953.19;;;2.55;98.70
72925;BME280;61070;50.794;7.054;2023-02-15T08:49:12;101968.41;;;2.65;98.30
72925;BME280;61070;50.794;7.054;2023-02-15T08:51:38;101954.00;;;2.75;98.04
72925;BME280;61070;50.794;7.054;2023-02-15T08:54:11;101961.13;;;2.79;98.02
72925;BME280;61070;50.794;7.054;2023-02-15T08:56:38;101949.41;;;2.91;96.92
72925;BME280;61070;50.794;7.054;2023-02-15T08:59:05;101943.47;;;2.96;96.21
72925;BME280;61070;50.794;7.054;2023-02-15T09:01:32;101939.97;;;2.95;96.58
72925;BME280;61070;50.794;7.054;2023-02-15T09:03:59;101937.00;;;3.08;95.61
72925;BME280;61070;50.794;7.054;2023-02-15T09:06:26;101934.59;;;3.14;95.20
72925;BME280;61070;50.794;7.054;2023-02-15T09:08:52;101934.06;;;3.23;94.84
72925;BME280;61070;50.794;7.054;2023-02-15T09:11:20;101938.28;;;3.19;94.47
72925;BME280;61070;50.794;7.054;2023-02-15T09:14:00;101930.69;;;3.27;94.76
72925;BME280;61070;50.794;7.054;2023-02-15T09:16:29;101926.94;;;3.43;93.27
72925;BME280;61070;50.794;7.054;2023-02-15T09:18:55;101933.41;;;3.53;92.43
72925;BME280;61070;50.794;7.054;2023-02-15T09:21:23;101934.19;;;3.50;92.33
72925;BME280;61070;50.794;7.054;2023-02-15T09:23:51;101932.84;;;3.61;93.71
72925;BME280;61070;50.794;7.054;2023-02-15T09:26:19;101938.59;;;3.75;92.65
72925;BME280;61070;50.794;7.054;2023-02-15T09:28:46;101934.81;;;3.92;90.57
72925;BME280;61070;50.794;7.054;2023-02-15T09:31:15;101938.28;;;3.91;89.68
72925;BME280;61070;50.794;7.054;2023-02-15T09:33:42;101941.84;;;3.93;90.32
72925;BME280;61070;50.794;7.054;2023-02-15T09:36:20;101944.75;;;4.01;89.82
72925;BME280;61070;50.794;7.054;2023-02-15T09:38:50;101939.19;;;4.17;89.21
72925;BME280;61070;50.794;7.054;2023-02-15T09:44:28;101945.13;;;4.12;89.43
72925;BME280;61070;50.794;7.054;2023-02-15T09:50:14;101946.22;;;4.44;87.86
72925;BME280;61070;50.794;7.054;2023-02-15T09:53:17;101945.25;;;4.42;87.36
72925;BME280;61070;50.794;7.054;2023-02-15T09:58:46;101945.59;;;4.52;87.82
72925;BME280;61070;50.794;7.054;2023-02-15T10:01:26;101944.16;;;4.62;86.09
72925;BME280;61070;50.794;7.054;2023-02-15T10:04:01;101939.47;;;4.79;86.37
72925;BME280;61070;50.794;7.054;2023-02-15T10:09:06;101943.34;;;4.90;86.51
72925;BME280;61070;50.794;7.054;2023-02-15T10:11:41;101939.63;;;5.12;85.46
72925;BME280;61070;50.794;7.054;2023-02-15T10:14:44;101939.00;;;5.20;84.16
72925;BME280;61070;50.794;7.054;2023-02-15T10:25:46;101926.94;;;5.57;82.13
72925;BME280;61070;50.794;7.054;2023-02-15T10:28:20;101925.25;;;5.59;82.66
72925;BME280;61070;50.794;7.054;2023-02-15T10:30:50;101932.91;;;5.83;81.25
72925;BME280;61070;50.794;7.054;2023-02-15T10:33:26;101925.06;;;5.84;80.88
72925;BME280;61070;50.794;7.054;2023-02-15T10:36:34;101923.72;;;5.99;81.39
72925;BME280;61070;50.794;7.054;2023-02-15T10:39:23;101932.81;;;6.11;80.93
72925;BME280;61070;50.794;7.054;2023-02-15T10:48:16;101924.31;;;6.22;79.41
72925;BME280;61070;50.794;7.054;2023-02-15T10:50:52;101914.66;;;6.21;79.83
72925;BME280;61070;50.794;7.054;2023-02-15T10:56:13;101916.59;;;6.64;77.02
72925;BME280;61070;50.794;7.054;2023-02-15T10:58:59;101918.25;;;6.59;77.58
72925;BME280;61070;50.794;7.054;2023-02-15T11:01:58;101910.53;;;6.68;78.61
72925;BME280;61070;50.794;7.054;2023-02-15T11:04:40;101900.41;;;6.85;76.97
72925;BME280;61070;50.794;7.054;2023-02-15T11:09:42;101894.09;;;6.78;75.92
72925;BME280;61070;50.794;7.054;2023-02-15T11:12:12;101891.72;;;6.89;76.62
72925;BME280;61070;50.794;7.054;2023-02-15T11:17:51;101877.72;;;7.32;74.95
72925;BME280;61070;50.794;7.054;2023-02-15T11:22:49;101873.72;;;7.51;73.68
72925;BME280;61070;50.794;7.054;2023-02-15T11:25:24;101871.13;;;7.54;73.39
72925;BME280;61070;50.794;7.054;2023-02-15T11:27:51;101865.00;;;7.56;73.52
72925;BME280;61070;50.794;7.054;2023-02-15T11:30:25;101855.22;;;7.48;73.42
72925;BME280;61070;50.794;7.054;2023-02-15T11:32:56;101858.22;;;7.69;72.98
72925;BME280;61070;50.794;7.054;2023-02-15T11:35:27;101860.34;;;7.88;72.11
72925;BME280;61070;50.794;7.054;2023-02-15T11:38:18;101858.69;;;7.94;72.20
72925;BME280;61070;50.794;7.054;2023-02-15T11:43:33;101848.31;;;8.04;72.05
72925;BME280;61070;50.794;7.054;2023-02-15T11:46:01;101841.91;;;8.41;70.66
72925;BME280;61070;50.794;7.054;2023-02-15T11:48:29;101840.28;;;8.50;71.40
72925;BME280;61070;50.794;7.054;2023-02-15T11:50:56;101835.09;;;8.59;71.18
72925;BME280;61070;50.794;7.054;2023-02-15T11:53:22;101839.78;;;8.77;70.56
72925;BME280;61070;50.794;7.054;2023-02-15T11:55:52;101839.78;;;8.77;69.98
72925;BME280;61070;50.794;7.054;2023-02-15T11:58:41;101834.53;;;8.81;70.34
72925;BME280;61070;50.794;7.054;2023-02-15T12:01:10;101832.78;;;8.82;69.21
72925;BME280;61070;50.794;7.054;2023-02-15T12:06:15;101831.19;;;8.93;70.39
72925;BME280;61070;50.794;7.054;2023-02-15T12:08:46;101818.03;;;8.97;68.77
72925;BME280;61070;50.794;7.054;2023-02-15T12:11:25;101816.34;;;9.02;69.28
72925;BME280;61070;50.794;7.054;2023-02-15T12:13:59;101820.06;;;9.20;69.01
72925;BME280;61070;50.794;7.054;2023-02-15T12:16:26;101807.66;;;9.13;68.06
72925;BME280;61070;50.794;7.054;2023-02-15T12:18:55;101808.66;;;9.22;67.09
72925;BME280;61070;50.794;7.054;2023-02-15T12:21:28;101810.28;;;9.13;66.84
72925;BME280;61070;50.794;7.054;2023-02-15T12:23:57;101796.34;;;9.27;67.66
72925;BME280;61070;50.794;7.054;2023-02-15T12:26:27;101803.50;;;9.34;66.13
72925;BME280;61070;50.794;7.054;2023-02-15T12:28:54;101794.69;;;9.37;66.01
72925;BME280;61070;50.794;7.054;2023-02-15T12:31:47;101788.66;;;9.49;65.80
72925;BME280;61070;50.794;7.054;2023-02-15T12:34:19;101786.06;;;9.52;66.08
72925;BME280;61070;50.794;7.054;2023-02-15T12:36:48;101787.88;;;9.59;65.75
72925;BME280;61070;50.794;7.054;2023-02-15T12:39:22;101786.09;;;9.58;65.38
72925;BME280;61070;50.794;7.054;2023-02-15T12:44:22;101780.81;;;9.58;64.95
72925;BME280;61070;50.794;7.054;2023-02-15T12:49:35;101771.22;;;9.68;64.89
72925;BME280;61070;50.794;7.054;2023-02-15T12:52:44;101779.22;;;9.75;64.51
72925;BME280;61070;50.794;7.054;2023-02-15T12:54:50;101773.09;;;9.84;64.30
72925;BME280;61070;50.794;7.054;2023-02-15T13:02:36;101767.00;;;9.91;65.00
72925;BME280;61070;50.794;7.054;2023-02-15T13:07:54;101747.66;;;10.01;64.15
72925;BME280;61070;50.794;7.054;2023-02-15T13:10:27;101757.44;;;10.08;63.46
72925;BME280;61070;50.794;7.054;2023-02-15T13:12:55;101748.63;;;10.11;64.74
72925;BME280;61070;50.794;7.054;2023-02-15T13:15:27;101752.16;;;10.10;64.18
72925;BME280;61070;50.794;7.054;2023-02-15T13:17:55;101743.31;;;10.09;64.49
72925;BME280;61070;50.794;7.054;2023-02-15T13:20:22;101735.50;;;10.26;64.03
72925;BME280;61070;50.794;7.054;2023-02-15T13:22:55;101733.75;;;10.27;63.86
72925;BME280;61070;50.794;7.054;2023-02-15T13:25:25;101732.84;;;10.23;64.48
72925;BME280;61070;50.794;7.054;2023-02-15T13:27:54;101732.03;;;10.33;64.56
72925;BME280;61070;50.794;7.054;2023-02-15T13:30:30;101726.72;;;10.33;64.08
72925;BME280;61070;50.794;7.054;2023-02-15T13:33:03;101724.03;;;10.30;64.36
72925;BME280;61070;50.794;7.054;2023-02-15T13:35:36;101718.81;;;10.39;65.07
72925;BME280;61070;50.794;7.054;2023-02-15T13:38:15;101714.38;;;10.38;64.42
72925;BME280;61070;50.794;7.054;2023-02-15T13:40:53;101710.03;;;10.53;64.05
72925;BME280;61070;50.794;7.054;2023-02-15T13:43:25;101712.72;;;10.56;64.36
72925;BME280;61070;50.794;7.054;2023-02-15T13:48:59;101707.41;;;10.59;64.80
72925;BME280;61070;50.794;7.054;2023-02-15T13:51:54;101704.81;;;10.75;63.85
72925;BME280;61070;50.794;7.054;2023-02-15T13:57:15;101693.38;;;10.87;63.76
72925;BME280;61070;50.794;7.054;2023-02-15T14:08:45;101680.16;;;10.96;63.49
72925;BME280;61070;50.794;7.054;2023-02-15T14:11:52;101685.41;;;10.76;64.16
72925;BME280;61070;50.794;7.054;2023-02-15T14:14:31;101685.47;;;10.92;63.08
72925;BME280;61070;50.794;7.054;2023-02-15T14:20:04;101676.63;;;11.05;63.41
72925;BME280;61070;50.794;7.054;2023-02-15T14:22:44;101678.44;;;11.21;61.97
72925;BME280;61070;50.794;7.054;2023-02-15T14:27:56;101681.97;;;11.17;62.50
72925;BME280;61070;50.794;7.054;2023-02-15T14:30:31;101682.81;;;10.96;63.07
72925;BME280;61070;50.794;7.054;2023-02-15T14:33:06;101681.94;;;11.03;62.82
72925;BME280;61070;50.794;7.054;2023-02-15T14:35:33;101670.44;;;10.89;63.12
72925;BME280;61070;50.794;7.054;2023-02-15T14:41:12;101679.28;;;10.91;63.50
72925;BME280;61070;50.794;7.054;2023-02-15T14:49:04;101674.84;;;10.96;63.37
72925;BME280;61070;50.794;7.054;2023-02-15T14:56:44;101667.78;;;10.91;63.28
72925;BME280;61070;50.794;7.054;2023-02-15T14:59:22;101669.53;;;10.83;64.36
72925;BME280;61070;50.794;7.054;2023-02-15T15:01:57;101673.94;;;10.81;64.12
72925;BME280;61070;50.794;7.054;2023-02-15T15:07:02;101685.41;;;10.87;63.27